createdAt,value
2023-05-25T00:03:52.960Z,100766.28
2023-05-25T00:08:55.426Z,100765.94
2023-05-25T00:13:56.889Z,100765.25
2023-05-25T00:18:58.349Z,100775.41
2023-05-25T00:24:00.557Z,100766.28
2023-05-25T00:29:02.001Z,100770.56
2023-05-25T00:34:03.460Z,100770.31
2023-05-25T00:39:05.983Z,100761.28
2023-05-25T00:44:08.018Z,100768.56
2023-05-25T00:49:09.442Z,100758.34
2023-05-25T00:54:11.263Z,100751.34
2023-05-25T00:59:15.598Z,100755.59
2023-05-25T01:04:17.068Z,100754.56
2023-05-25T01:09:18.936Z,100763.22
2023-05-25T01:14:21.463Z,100768.28
2023-05-25T01:19:22.906Z,100767.84
2023-05-25T01:24:32.269Z,100769.94
2023-05-25T01:29:34.561Z,100777.09
2023-05-25T01:34:36.587Z,100787.44
2023-05-25T01:39:38.008Z,100781.81
2023-05-25T01:44:39.810Z,100776.69
2023-05-25T01:49:49.983Z,100780.28
2023-05-25T01:55:12.866Z,100785.97
2023-05-25T02:00:14.478Z,100772.31
2023-05-25T02:05:16.159Z,100775.19
2023-05-25T02:10:17.642Z,100778.91
2023-05-25T02:15:19.131Z,100775.34
2023-05-25T02:20:20.618Z,100785.81
2023-05-25T02:25:22.050Z,100786.06
2023-05-25T02:30:23.542Z,100796.31
2023-05-25T02:35:24.996Z,100800.50
2023-05-25T02:40:26.453Z,100807.25
2023-05-25T02:45:27.900Z,100795.47
2023-05-25T02:50:29.318Z,100797.75
2023-05-25T02:55:30.735Z,100805.75
2023-05-25T03:00:32.226Z,100800.03
2023-05-25T03:05:35.166Z,100806.13
2023-05-25T03:10:36.608Z,100805.31
2023-05-25T03:15:40.001Z,100808.88
2023-05-25T03:20:41.606Z,100804.66
2023-05-25T03:25:43.426Z,100813.53
2023-05-25T03:30:45.850Z,100821.28
2023-05-25T03:35:47.347Z,100819.00
2023-05-25T03:40:48.824Z,100841.25
2023-05-25T03:45:50.368Z,100838.16
2023-05-25T03:50:51.903Z,100848.84
2023-05-25T03:55:53.424Z,100850.28
2023-05-25T04:00:56.189Z,100845.44
2023-05-25T04:05:58.923Z,100858.50
2023-05-25T04:11:00.429Z,100850.91
2023-05-25T04:16:02.022Z,100858.88
2023-05-25T04:21:03.634Z,100862.47
2023-05-25T04:26:06.005Z,100867.47
2023-05-25T04:31:07.937Z,100866.63
2023-05-25T04:36:10.826Z,100862.47
2023-05-25T04:41:12.240Z,100865.19
2023-05-25T04:46:13.960Z,100864.75
2023-05-25T04:51:16.088Z,100863.66
2023-05-25T04:56:17.589Z,100873.09
2023-05-25T05:01:20.518Z,100872.06
2023-05-25T05:06:22.583Z,100856.69
2023-05-25T05:11:24.016Z,100859.66
2023-05-25T05:16:25.461Z,100861.31
2023-05-25T05:21:26.988Z,100852.06
2023-05-25T05:26:28.683Z,100856.16
2023-05-25T05:31:31.487Z,100854.34
2023-05-25T05:36:45.098Z,100854.72
2023-05-25T05:41:54.551Z,100865.88
2023-05-25T05:47:00.117Z,100860.19
2023-05-25T05:52:02.977Z,100858.06
2023-05-25T05:57:04.511Z,100872.19
2023-05-25T06:02:07.399Z,100863.38
2023-05-25T06:07:08.860Z,100866.47
2023-05-25T06:12:10.374Z,100868.56
2023-05-25T06:17:11.858Z,100869.16
2023-05-25T06:22:13.355Z,100870.97
2023-05-25T06:27:14.775Z,100870.53
2023-05-25T06:32:16.567Z,100868.31
2023-05-25T06:37:18.125Z,100862.16
2023-05-25T06:42:19.563Z,100865.06
2023-05-25T06:47:21.126Z,100864.59
2023-05-25T06:52:22.655Z,100877.59
2023-05-25T06:57:24.130Z,100869.09
2023-05-25T07:02:25.621Z,100866.13
2023-05-25T07:07:27.100Z,100861.09
2023-05-25T07:12:28.514Z,100869.47
2023-05-25T07:17:31.266Z,100871.16
2023-05-25T07:22:32.850Z,100874.09
2023-05-25T07:27:34.354Z,100878.72
2023-05-25T07:32:35.961Z,100866.50
2023-05-25T07:37:37.392Z,100870.75
2023-05-25T07:42:38.879Z,100862.72
2023-05-25T07:47:40.452Z,100863.69
2023-05-25T07:52:42.119Z,100865.78
2023-05-25T07:57:43.891Z,100870.22
2023-05-25T08:02:45.548Z,100874.00
2023-05-25T08:07:47.105Z,100878.28
2023-05-25T08:12:50.647Z,100879.34
2023-05-25T08:17:53.342Z,100889.44
2023-05-25T08:22:54.874Z,100871.97
2023-05-25T08:27:56.346Z,100885.66
2023-05-25T08:32:57.877Z,100884.44
2023-05-25T08:37:59.337Z,100890.75
2023-05-25T08:43:00.796Z,100884.81
2023-05-25T08:48:02.552Z,100890.53
2023-05-25T08:53:05.638Z,100883.59
2023-05-25T08:58:17.500Z,100879.78
2023-05-25T09:03:19.090Z,100887.41
2023-05-25T09:08:20.579Z,100877.06
2023-05-25T09:13:23.117Z,100891.59
2023-05-25T09:18:24.819Z,100884.22
2023-05-25T09:23:26.352Z,100892.88
2023-05-25T09:28:28.007Z,100887.22
2023-05-25T09:33:29.544Z,100898.81
2023-05-25T09:38:31.442Z,100895.38
2023-05-25T09:48:41.882Z,100908.59
2023-05-25T09:53:43.322Z,100907.16
2023-05-25T09:58:45.341Z,100904.69
2023-05-25T10:03:59.808Z,100919.63
2023-05-25T10:09:06.403Z,100918.81
2023-05-25T10:14:07.885Z,100902.75
2023-05-25T10:19:21.892Z,100900.66
2023-05-25T10:24:34.530Z,100901.94
2023-05-25T10:29:36.022Z,100908.47
2023-05-25T10:34:37.461Z,100898.81
2023-05-25T10:39:38.891Z,100893.56
2023-05-25T10:44:41.458Z,100897.72
2023-05-25T10:50:38.720Z,100893.88
2023-05-25T10:55:52.476Z,100889.53
2023-05-25T11:01:06.856Z,100896.00
2023-05-25T11:06:10.333Z,100881.47
2023-05-25T11:11:11.777Z,100883.97
2023-05-25T11:16:13.619Z,100879.34
2023-05-25T11:21:27.250Z,100870.06
2023-05-25T11:26:33.345Z,100865.66
2023-05-25T11:31:40.610Z,100872.19
2023-05-25T11:36:44.616Z,100867.41
2023-05-25T11:41:55.424Z,100864.66
2023-05-25T11:46:57.609Z,100865.97
2023-05-25T11:51:59.246Z,100843.81
2023-05-25T11:57:01.395Z,100844.47
2023-05-25T12:02:03.412Z,100845.25
2023-05-25T12:07:05.911Z,100846.75
2023-05-25T12:12:07.414Z,100844.22
2023-05-25T12:17:08.940Z,100847.78
2023-05-25T12:22:11.555Z,100827.56
2023-05-25T12:27:20.431Z,100828.84
2023-05-25T12:32:21.909Z,100817.69
2023-05-25T12:37:23.412Z,100819.25
2023-05-25T12:42:27.560Z,100816.69
2023-05-25T12:47:30.320Z,100807.63
2023-05-25T12:52:36.694Z,100809.13
2023-05-25T12:57:38.243Z,100810.13
2023-05-25T13:02:44.232Z,100809.22
2023-05-25T13:07:45.773Z,100802.44
2023-05-25T13:12:47.695Z,100799.50
2023-05-25T13:17:50.370Z,100796.28
2023-05-25T13:22:52.527Z,100793.09
2023-05-25T13:27:54.891Z,100811.41
2023-05-25T13:32:56.387Z,100798.06
2023-05-25T13:37:58.668Z,100794.28
2023-05-25T13:43:00.129Z,100789.91
2023-05-25T13:48:01.707Z,100778.56
2023-05-25T13:53:03.242Z,100783.66
2023-05-25T13:58:04.663Z,100777.72
2023-05-25T14:03:06.837Z,100774.72
2023-05-25T14:08:08.400Z,100764.81
2023-05-25T14:13:09.901Z,100772.66
2023-05-25T14:18:11.393Z,100767.66
2023-05-25T14:23:15.110Z,100769.31
2023-05-25T14:28:17.405Z,100756.88
2023-05-25T14:33:19.089Z,100769.25
2023-05-25T14:38:20.576Z,100762.69
2023-05-25T14:43:22.011Z,100747.09
2023-05-25T14:48:25.382Z,100758.56
2023-05-25T14:53:27.138Z,100750.81
2023-05-25T14:58:28.869Z,100764.41
2023-05-25T15:03:30.480Z,100749.84
2023-05-25T15:08:31.949Z,100755.41
2023-05-25T15:13:33.420Z,100758.88
2023-05-25T15:18:34.865Z,100749.91
2023-05-25T15:23:36.511Z,100759.34
2023-05-25T15:28:38.074Z,100761.88
2023-05-25T15:33:51.991Z,100763.78
2023-05-25T15:38:57.966Z,100754.25
2023-05-25T15:44:01.077Z,100739.13
2023-05-25T15:49:02.583Z,100729.84
2023-05-25T15:54:04.031Z,100735.31
2023-05-25T15:59:05.599Z,100732.34
2023-05-25T16:04:07.166Z,100726.03
2023-05-25T16:09:08.735Z,100720.44
2023-05-25T16:14:10.257Z,100720.19
2023-05-25T16:19:13.853Z,100713.53
2023-05-25T16:24:15.772Z,100715.81
2023-05-25T16:29:17.251Z,100716.25
2023-05-25T16:34:18.690Z,100717.53
2023-05-25T16:39:20.122Z,100705.91
2023-05-25T16:44:21.550Z,100717.31
2023-05-25T16:49:22.984Z,100707.16
2023-05-25T16:54:24.401Z,100720.16
2023-05-25T16:59:25.860Z,100709.06
2023-05-25T17:04:27.325Z,100710.75
2023-05-25T17:09:28.745Z,100702.53
2023-05-25T17:14:30.280Z,100708.47
2023-05-25T17:19:31.751Z,100711.22
2023-05-25T17:24:33.200Z,100714.16
2023-05-25T17:29:34.648Z,100721.69
2023-05-25T17:34:36.089Z,100717.59
2023-05-25T17:39:37.527Z,100718.00
2023-05-25T17:44:41.375Z,100718.41
2023-05-25T17:49:42.850Z,100716.38
2023-05-25T17:54:44.277Z,100717.69
2023-05-25T17:59:45.902Z,100720.38
2023-05-25T18:04:47.373Z,100720.97
2023-05-25T18:09:48.813Z,100726.22
2023-05-25T18:14:50.650Z,100721.59
2023-05-25T18:19:52.159Z,100724.84
2023-05-25T18:24:53.586Z,100735.56
2023-05-25T18:29:55.084Z,100730.09
2023-05-25T18:34:57.336Z,100742.44
2023-05-25T18:39:58.935Z,100746.44
2023-05-25T18:45:01.304Z,100745.78
2023-05-25T18:50:03.061Z,100743.69
2023-05-25T18:55:05.792Z,100753.63
2023-05-25T19:00:08.733Z,100766.41
2023-05-25T19:05:14.995Z,100763.41
2023-05-25T19:10:16.537Z,100775.03
2023-05-25T19:15:18.090Z,100772.06
2023-05-25T19:20:19.660Z,100778.84
2023-05-25T19:25:21.186Z,100789.72
2023-05-25T19:30:22.657Z,100803.19
2023-05-25T19:35:24.077Z,100798.41
2023-05-25T19:40:25.523Z,100802.84
2023-05-25T19:45:27.015Z,100807.47
2023-05-25T19:50:30.527Z,100807.66
2023-05-25T19:55:32.170Z,100809.34
2023-05-25T20:00:33.589Z,100818.78
2023-05-25T20:05:35.063Z,100819.06
2023-05-25T20:10:39.739Z,100826.81
2023-05-25T20:15:41.267Z,100830.78
2023-05-25T20:20:42.950Z,100838.38
2023-05-25T20:25:44.570Z,100840.03
2023-05-25T20:30:46.198Z,100845.28
2023-05-25T20:35:49.658Z,100844.25
2023-05-25T20:40:51.112Z,100848.06
2023-05-25T20:45:52.612Z,100848.19
2023-05-25T20:50:54.066Z,100850.53
2023-05-25T20:55:56.910Z,100849.22
2023-05-25T21:00:58.352Z,100851.00
2023-05-25T21:05:59.788Z,100867.38
2023-05-25T21:11:01.233Z,100868.38
2023-05-25T21:16:02.720Z,100879.53
2023-05-25T21:21:05.380Z,100873.03
2023-05-25T21:26:06.895Z,100879.78
2023-05-25T21:31:08.402Z,100877.63
2023-05-25T21:36:09.845Z,100884.66
2023-05-25T21:41:11.281Z,100894.75
2023-05-25T21:46:12.706Z,100888.63
2023-05-25T21:51:14.112Z,100899.38
2023-05-25T21:56:15.564Z,100901.91
2023-05-25T22:01:17.116Z,100909.03
2023-05-25T22:06:18.591Z,100915.13
2023-05-25T22:11:21.932Z,100910.72
2023-05-25T22:16:23.409Z,100920.22
2023-05-25T22:21:24.853Z,100907.38
2023-05-25T22:26:27.384Z,100917.88
2023-05-25T22:31:28.959Z,100917.69
2023-05-25T22:36:30.603Z,100919.38
2023-05-25T22:41:32.021Z,100922.50
2023-05-25T22:46:33.490Z,100926.28
2023-05-25T22:51:34.932Z,100936.03
2023-05-25T22:56:38.857Z,100934.72
2023-05-25T23:01:40.304Z,100930.31
2023-05-25T23:06:41.892Z,100936.22
2023-05-25T23:11:43.370Z,100931.59
2023-05-25T23:16:48.256Z,100933.28
2023-05-25T23:21:49.854Z,100929.91
2023-05-25T23:26:51.666Z,100934.72
2023-05-25T23:31:53.229Z,100933.78
2023-05-25T23:36:54.764Z,100926.56
2023-05-25T23:41:56.401Z,100932.19
2023-05-25T23:46:57.833Z,100926.72
2023-05-25T23:51:59.282Z,100928.25
2023-05-25T23:57:01.091Z,100932.72
